Main page
METAR-TAF:

METAR-TAF

Airports :

Naval Station Rota

Rota, Spain

latitude: 36-39N, longitude: 006-21W, elevation: 26 m

Current weather observation

The report was made 27 minutes ago, at 15:00 UTC
Wind 8 kt from the South/Southwest, varying between South and West
Temperature 17°C
Humidity 55%
Pressure 1015 hPa
Visibility 10 km or more
Few clouds at a height of 2500 ft

METAR: LERT 281500Z 21008KT 170V260 9999 FEW025 17/08 Q1015 NOSIG

Time: 16:27 (15:27 UTC)

Forecast

The report was made 1 hour and 27 minutes ago, at 14:00 UTC
Forecast valid from 28 at 15 UTC to 28 at 24 UTC
Wind 10 kt from the South/Southwest
Visibility 10 km or more
Few clouds at a height of 2000 ft
Scattered clouds at a height of 4000 ft
Becoming
from 28 at 16 UTC to 28 at 18 UTC
Wind 6 kt from the Southeast

TAF: LERT 281400Z 2815/2824 20010KT 9999 FEW020 SCT040 BECMG 2816/2818 13006KT

Weather observations and forecasts of more than 4000 airports (METAR and TAF reports).

The available stations are represented by yellow and red dots on the map.

Hover mouse over dot to see the name of the station.

Then click to see weather observations and forecasts.

To change the map : click on the green buttons with a black cross to zoom in, on the green button with a dash to zoom out, or on the green arrows for adjacent maps.


METAR-TAF: